createdAt,value
2018-04-22T00:00:16.343Z,59.20
2018-04-22T00:02:51.682Z,59.40
2018-04-22T00:05:27.011Z,60.20
2018-04-22T00:08:03.039Z,61.20
2018-04-22T00:10:38.200Z,61.20
2018-04-22T00:13:13.343Z,61.30
2018-04-22T00:15:49.489Z,62.00
2018-04-22T00:18:24.822Z,62.00
2018-04-22T00:21:00.076Z,61.70
2018-04-22T00:23:36.109Z,62.30
2018-04-22T00:26:12.013Z,63.20
2018-04-22T00:28:47.200Z,63.20
2018-04-22T00:31:22.521Z,63.20
2018-04-22T00:33:58.144Z,63.70
2018-04-22T00:36:34.106Z,64.00
2018-04-22T00:39:09.294Z,64.00
2018-04-22T00:41:45.354Z,64.30
2018-04-22T00:44:20.721Z,64.30
2018-04-22T00:46:55.866Z,64.60
2018-04-22T00:49:31.172Z,65.20
2018-04-22T00:52:06.454Z,64.70
2018-04-22T00:54:41.815Z,64.90
2018-04-22T00:57:17.116Z,65.50
2018-04-22T00:59:53.352Z,65.90
2018-04-22T01:02:28.697Z,65.80
2018-04-22T01:05:05.198Z,66.60
2018-04-22T01:07:40.404Z,66.40
2018-04-22T01:10:15.787Z,67.00
2018-04-22T01:12:50.856Z,67.30
2018-04-22T01:15:26.203Z,67.10
2018-04-22T01:18:01.404Z,67.20
2018-04-22T01:20:36.544Z,67.40
2018-04-22T01:23:11.896Z,67.20
2018-04-22T01:25:47.859Z,68.40
2018-04-22T01:28:22.975Z,68.40
2018-04-22T01:30:58.107Z,68.50
2018-04-22T01:33:33.347Z,68.40
2018-04-22T01:36:09.444Z,68.50
2018-04-22T01:38:44.544Z,68.50
2018-04-22T01:41:19.783Z,68.60
2018-04-22T01:43:55.156Z,68.80
2018-04-22T01:46:30.499Z,69.50
2018-04-22T01:49:06.459Z,69.70
2018-04-22T01:51:41.844Z,69.50
2018-04-22T01:54:17.765Z,70.00
2018-04-22T01:56:52.885Z,69.90
2018-04-22T01:59:28.267Z,70.00
2018-04-22T02:02:03.460Z,70.10
2018-04-22T02:04:38.756Z,70.40
2018-04-22T02:07:14.761Z,70.70
2018-04-22T02:09:50.055Z,70.70
2018-04-22T02:12:25.347Z,70.80
2018-04-22T02:15:00.671Z,70.70
2018-04-22T02:17:35.907Z,71.10
2018-04-22T02:20:11.550Z,71.10
2018-04-22T02:22:46.810Z,71.30
2018-04-22T02:25:24.987Z,72.50
2018-04-22T02:28:00.196Z,72.40
2018-04-22T02:30:35.349Z,72.80
2018-04-22T02:33:10.611Z,72.80
2018-04-22T02:35:45.692Z,72.80
2018-04-22T02:38:20.896Z,73.20
2018-04-22T02:40:55.987Z,73.20
2018-04-22T02:43:31.192Z,73.30
2018-04-22T02:46:06.481Z,73.70
2018-04-22T02:48:41.921Z,73.60
2018-04-22T02:51:17.016Z,73.30
2018-04-22T02:53:53.024Z,73.50
2018-04-22T02:56:29.073Z,73.70
2018-04-22T02:59:04.196Z,73.50
2018-04-22T03:01:39.483Z,74.00
2018-04-22T03:04:15.472Z,73.90
2018-04-22T03:06:50.619Z,73.90
2018-04-22T03:09:25.711Z,73.70
2018-04-22T03:12:00.924Z,73.80
2018-04-22T03:14:36.140Z,74.00
2018-04-22T03:17:11.427Z,74.70
2018-04-22T03:19:47.407Z,74.70
2018-04-22T03:22:22.540Z,74.80
2018-04-22T03:24:57.763Z,74.90
2018-04-22T03:27:32.992Z,75.40
2018-04-22T03:30:08.902Z,75.80
2018-04-22T03:32:44.089Z,75.80
2018-04-22T03:35:19.542Z,75.70
2018-04-22T03:37:54.884Z,76.00
2018-04-22T03:40:30.693Z,76.90
2018-04-22T03:43:06.816Z,77.00
2018-04-22T03:45:43.589Z,77.30
2018-04-22T03:48:18.973Z,77.30
2018-04-22T03:50:54.220Z,77.60
2018-04-22T03:53:29.505Z,78.10
2018-04-22T03:56:05.503Z,78.60
2018-04-22T03:58:40.694Z,78.70
2018-04-22T04:01:16.075Z,78.60
2018-04-22T04:03:52.099Z,79.20
2018-04-22T04:06:28.218Z,79.10
2018-04-22T04:09:03.293Z,79.10
2018-04-22T04:11:38.483Z,79.10
2018-04-22T04:14:14.450Z,79.30
2018-04-22T04:16:50.495Z,79.50
2018-04-22T04:19:43.774Z,79.50
2018-04-22T04:22:36.661Z,79.70
2018-04-22T04:38:45.124Z,81.40
2018-04-22T04:41:21.129Z,82.30
2018-04-22T04:43:56.299Z,82.30
2018-04-22T04:46:31.447Z,82.10
2018-04-22T04:49:06.779Z,82.60
2018-04-22T04:51:41.938Z,82.20
2018-04-22T04:54:17.925Z,83.10
2018-04-22T04:56:53.152Z,83.10
2018-04-22T04:59:28.355Z,82.40
2018-04-22T05:02:03.564Z,82.80
2018-04-22T05:04:38.752Z,82.80
2018-04-22T05:07:13.829Z,83.20
2018-04-22T05:09:49.830Z,82.60
2018-04-22T05:12:25.194Z,82.60
2018-04-22T05:15:00.348Z,82.20
2018-04-22T05:17:35.720Z,82.60
2018-04-22T05:20:10.915Z,82.20
2018-04-22T05:22:46.258Z,82.30
2018-04-22T05:25:21.600Z,82.10
2018-04-22T05:27:56.945Z,81.60
2018-04-22T05:30:32.149Z,81.30
2018-04-22T05:33:08.035Z,80.20
2018-04-22T05:35:43.191Z,80.20
2018-04-22T05:38:18.492Z,79.00
2018-04-22T05:40:54.530Z,77.20
2018-04-22T05:43:29.712Z,76.90
2018-04-22T05:46:06.481Z,76.20
2018-04-22T05:48:42.387Z,73.30
2018-04-22T05:51:17.727Z,73.30
2018-04-22T05:53:52.997Z,72.20
2018-04-22T05:56:28.239Z,71.90
2018-04-22T05:59:03.619Z,71.50
2018-04-22T06:01:38.991Z,70.00
2018-04-22T06:04:14.268Z,69.50
2018-04-22T06:06:49.652Z,68.70
2018-04-22T06:09:24.955Z,68.50
2018-04-22T06:12:00.100Z,69.00
2018-04-22T06:14:35.536Z,68.90
2018-04-22T06:17:10.722Z,67.80
2018-04-22T06:19:46.538Z,64.70
2018-04-22T06:22:21.659Z,64.60
2018-04-22T06:24:57.696Z,63.10
2018-04-22T06:27:32.899Z,60.90
2018-04-22T06:30:08.027Z,59.70
2018-04-22T06:32:43.354Z,59.00
2018-04-22T06:35:18.723Z,57.40
2018-04-22T06:37:54.042Z,56.20
2018-04-22T06:40:29.351Z,55.10
2018-04-22T06:43:04.765Z,55.30
2018-04-22T06:45:40.041Z,54.10
2018-04-22T06:48:15.240Z,54.00
2018-04-22T06:50:50.552Z,54.10
2018-04-22T06:53:25.929Z,53.20
2018-04-22T06:56:01.923Z,55.80
2018-04-22T06:58:37.263Z,55.70
2018-04-22T07:01:12.775Z,55.30
2018-04-22T07:03:47.953Z,54.10
2018-04-22T07:06:24.037Z,53.30
2018-04-22T07:08:59.420Z,53.30
2018-04-22T07:11:35.553Z,52.50
2018-04-22T07:14:12.349Z,51.80
2018-04-22T07:16:47.905Z,51.80
2018-04-22T07:19:24.059Z,51.70
2018-04-22T07:21:59.296Z,51.70
2018-04-22T07:24:34.555Z,51.90
2018-04-22T07:27:10.457Z,52.80
2018-04-22T07:29:46.409Z,51.70
2018-04-22T07:32:22.272Z,50.20
2018-04-22T07:34:57.430Z,50.10
2018-04-22T07:37:32.574Z,51.10
2018-04-22T07:40:07.728Z,49.90
2018-04-22T07:42:43.196Z,49.10
2018-04-22T07:45:19.160Z,47.70
2018-04-22T07:47:54.306Z,47.50
2018-04-22T07:50:30.346Z,47.90
2018-04-22T07:53:05.716Z,47.90
2018-04-22T07:55:41.041Z,46.30
2018-04-22T07:58:16.230Z,44.80
2018-04-22T08:00:51.408Z,44.60
2018-04-22T08:03:27.395Z,41.10
2018-04-22T08:06:02.609Z,41.00
2018-04-22T08:08:37.860Z,41.50
2018-04-22T08:11:14.888Z,40.20
2018-04-22T08:13:52.003Z,39.40
2018-04-22T08:16:28.609Z,39.90
2018-04-22T08:19:06.557Z,40.00
2018-04-22T08:21:43.389Z,39.00
2018-04-22T08:24:18.647Z,38.50
2018-04-22T08:26:55.703Z,36.70
2018-04-22T08:29:32.124Z,36.00
2018-04-22T08:32:09.905Z,35.40
2018-04-22T08:34:45.451Z,35.40
2018-04-22T08:37:20.675Z,36.30
2018-04-22T08:39:57.927Z,36.40
2018-04-22T08:42:33.147Z,36.40
2018-04-22T08:45:08.493Z,36.80
2018-04-22T08:47:44.053Z,36.50
2018-04-22T08:50:19.398Z,35.00
2018-04-22T08:52:54.893Z,34.50
2018-04-22T08:55:30.822Z,34.90
2018-04-22T08:58:06.774Z,35.40
2018-04-22T09:00:42.823Z,34.30
2018-04-22T09:03:18.040Z,34.30
2018-04-22T09:05:55.999Z,33.20
2018-04-22T09:08:31.170Z,33.20
2018-04-22T09:11:06.416Z,31.40
2018-04-22T09:13:41.619Z,32.60
2018-04-22T09:16:16.881Z,33.10
2018-04-22T09:18:51.992Z,31.40
2018-04-22T09:21:27.405Z,30.90
2018-04-22T09:24:03.377Z,30.60
2018-04-22T09:26:39.192Z,30.60
2018-04-22T09:29:15.269Z,30.80
2018-04-22T09:31:51.802Z,30.80
2018-04-22T09:34:27.151Z,31.00
2018-04-22T09:37:02.474Z,32.30
2018-04-22T09:39:37.755Z,30.90
2018-04-22T09:42:12.953Z,30.90
2018-04-22T09:44:48.180Z,31.30
2018-04-22T09:47:23.493Z,31.10
2018-04-22T09:49:59.358Z,32.60
2018-04-22T09:52:34.688Z,32.60
2018-04-22T09:55:10.875Z,30.90
2018-04-22T09:57:46.881Z,31.60
2018-04-22T10:00:28.442Z,33.20
2018-04-22T10:03:07.637Z,33.20
2018-04-22T10:05:48.412Z,32.50
2018-04-22T10:08:23.844Z,31.90
2018-04-22T10:10:59.758Z,28.10
2018-04-22T10:13:35.077Z,28.10
2018-04-22T10:16:10.395Z,30.30
2018-04-22T10:18:45.514Z,31.60
2018-04-22T10:21:20.813Z,31.30
2018-04-22T10:23:57.341Z,30.60
2018-04-22T10:26:33.277Z,31.70
2018-04-22T10:29:08.608Z,31.70
2018-04-22T10:31:44.035Z,31.80
2018-04-22T10:34:19.370Z,32.20
2018-04-22T10:36:55.184Z,31.90
2018-04-22T10:39:30.377Z,30.20
2018-04-22T10:42:07.754Z,32.40
2018-04-22T10:44:43.303Z,32.40
2018-04-22T10:47:19.155Z,32.40
2018-04-22T10:49:54.547Z,32.50
2018-04-22T10:52:29.863Z,33.30
2018-04-22T10:55:05.156Z,30.80
2018-04-22T10:57:40.519Z,30.30
2018-04-22T11:00:15.807Z,30.60
2018-04-22T11:02:51.145Z,30.00
2018-04-22T11:05:26.328Z,31.40
2018-04-22T11:08:01.661Z,31.20
2018-04-22T11:10:36.827Z,31.00
2018-04-22T11:13:11.968Z,33.30
2018-04-22T11:15:47.350Z,30.80
2018-04-22T11:18:22.646Z,30.70
2018-04-22T11:20:57.801Z,30.70
2018-04-22T11:23:32.980Z,30.60
2018-04-22T11:26:08.232Z,30.70
2018-04-22T11:28:43.492Z,31.40
2018-04-22T11:31:19.354Z,28.90
2018-04-22T11:33:55.316Z,29.80
2018-04-22T11:36:30.643Z,29.80
2018-04-22T11:39:06.845Z,30.00
2018-04-22T11:41:42.146Z,30.80
2018-04-22T11:44:18.160Z,31.10
2018-04-22T11:46:53.307Z,31.00
2018-04-22T11:49:28.619Z,29.40
2018-04-22T11:52:03.695Z,28.80
2018-04-22T11:54:38.860Z,29.30
2018-04-22T11:57:14.298Z,30.00
2018-04-22T11:59:50.486Z,31.10
2018-04-22T12:02:26.163Z,31.10
2018-04-22T12:05:04.082Z,32.40
2018-04-22T12:07:39.345Z,32.30
2018-04-22T12:10:14.557Z,30.00
2018-04-22T12:12:50.558Z,30.80
2018-04-22T12:15:25.912Z,30.70
2018-04-22T12:18:01.799Z,31.50
2018-04-22T12:20:37.004Z,31.70
2018-04-22T12:23:12.311Z,32.20
2018-04-22T12:25:49.769Z,31.70
2018-04-22T12:28:25.685Z,32.10
2018-04-22T12:31:01.049Z,32.10
2018-04-22T12:33:36.306Z,31.80
2018-04-22T12:36:12.229Z,31.30
2018-04-22T12:38:48.184Z,32.10
2018-04-22T12:41:23.512Z,32.10
2018-04-22T12:43:58.968Z,32.00
2018-04-22T12:46:34.273Z,32.10
2018-04-22T12:49:09.397Z,32.60
2018-04-22T12:51:44.709Z,31.80
2018-04-22T12:54:19.908Z,33.80
2018-04-22T12:56:55.283Z,31.40
2018-04-22T12:59:30.609Z,32.00
2018-04-22T13:02:05.800Z,32.40
2018-04-22T13:04:41.794Z,32.40
2018-04-22T13:07:17.770Z,32.60
2018-04-22T13:09:53.728Z,30.90
2018-04-22T13:12:29.929Z,31.00
2018-04-22T13:15:05.977Z,31.10
2018-04-22T13:17:41.895Z,30.60
2018-04-22T13:20:17.045Z,30.50
2018-04-22T13:22:52.989Z,29.60
2018-04-22T13:25:28.172Z,29.60
2018-04-22T13:28:03.434Z,27.60
2018-04-22T13:30:38.571Z,29.20
2018-04-22T13:33:13.832Z,27.00
2018-04-22T13:35:49.210Z,27.30
2018-04-22T13:38:24.391Z,26.00
2018-04-22T13:40:59.703Z,27.50
2018-04-22T13:43:35.804Z,26.80
2018-04-22T13:46:11.093Z,26.70
2018-04-22T13:48:46.469Z,27.80
2018-04-22T13:51:21.658Z,28.00
2018-04-22T13:53:56.969Z,27.40
2018-04-22T13:56:32.204Z,27.10
2018-04-22T13:59:07.476Z,27.40
2018-04-22T14:01:42.857Z,28.30
2018-04-22T14:04:18.008Z,27.70
2018-04-22T14:06:53.405Z,28.80
2018-04-22T14:09:28.700Z,26.90
2018-04-22T14:12:03.979Z,26.50
2018-04-22T14:14:39.276Z,26.60
2018-04-22T14:17:14.342Z,26.60
2018-04-22T14:19:49.705Z,27.90
2018-04-22T14:22:24.794Z,27.50
2018-04-22T14:25:01.140Z,27.50
2018-04-22T14:27:36.344Z,27.50
2018-04-22T14:30:11.724Z,28.50
2018-04-22T14:32:48.290Z,28.10
2018-04-22T14:35:23.568Z,28.10
2018-04-22T14:37:58.893Z,29.20
2018-04-22T14:40:34.135Z,27.70
2018-04-22T14:43:10.017Z,28.00
2018-04-22T14:46:03.063Z,27.50
2018-04-22T15:02:12.500Z,28.50
2018-04-22T15:04:47.773Z,28.50
2018-04-22T15:07:23.012Z,28.30
2018-04-22T15:09:58.188Z,28.80
2018-04-22T15:12:34.402Z,27.90
2018-04-22T15:15:10.305Z,28.10
2018-04-22T15:17:45.457Z,28.10
2018-04-22T15:20:20.634Z,29.60
2018-04-22T15:22:56.048Z,31.60
2018-04-22T15:25:31.354Z,28.60
2018-04-22T15:28:07.822Z,28.40
2018-04-22T15:30:42.915Z,29.50
2018-04-22T15:33:18.297Z,28.90
2018-04-22T15:35:53.649Z,28.40
2018-04-22T15:38:29.812Z,28.60
2018-04-22T15:41:04.919Z,28.70
2018-04-22T15:43:40.910Z,29.20
2018-04-22T15:46:17.429Z,29.20
2018-04-22T15:48:53.331Z,28.30
2018-04-22T15:51:28.525Z,28.30
2018-04-22T15:54:03.981Z,28.90
2018-04-22T15:56:39.245Z,29.10
2018-04-22T15:59:15.216Z,28.50
2018-04-22T16:01:50.505Z,28.50
2018-04-22T16:04:26.558Z,28.90
2018-04-22T16:07:02.469Z,29.60
2018-04-22T16:09:38.507Z,29.30
2018-04-22T16:12:14.620Z,28.90
2018-04-22T16:14:49.736Z,28.80
2018-04-22T16:17:28.895Z,28.90
2018-04-22T16:20:04.037Z,29.30
2018-04-22T16:22:39.148Z,29.10
2018-04-22T16:25:14.465Z,29.20
2018-04-22T16:27:49.691Z,29.40
2018-04-22T16:30:25.093Z,28.90
2018-04-22T16:33:00.930Z,28.60
2018-04-22T16:35:36.102Z,28.10
2018-04-22T16:38:11.566Z,27.40
2018-04-22T16:40:46.881Z,28.30
2018-04-22T16:43:22.954Z,27.90
2018-04-22T16:45:59.022Z,26.60
2018-04-22T16:48:35.117Z,26.80
2018-04-22T16:51:10.440Z,26.80
2018-04-22T16:53:45.779Z,25.50
2018-04-22T16:56:21.127Z,25.70
2018-04-22T16:58:56.456Z,26.40
2018-04-22T17:01:31.857Z,26.80
2018-04-22T17:04:07.082Z,27.30
2018-04-22T17:06:43.045Z,26.80
2018-04-22T17:09:18.209Z,27.40
2018-04-22T17:11:53.468Z,27.30
2018-04-22T17:14:28.729Z,27.50
2018-04-22T17:17:04.215Z,28.30
2018-04-22T17:19:39.481Z,28.50
2018-04-22T17:22:15.708Z,28.80
2018-04-22T17:24:50.962Z,29.30
2018-04-22T17:27:26.859Z,29.80
2018-04-22T17:30:02.256Z,29.80
2018-04-22T17:32:37.417Z,30.10
2018-04-22T17:35:12.701Z,30.70
2018-04-22T17:37:48.731Z,30.70
2018-04-22T17:40:24.141Z,30.70
2018-04-22T17:43:00.043Z,31.30
2018-04-22T17:45:35.276Z,31.20
2018-04-22T17:48:10.471Z,31.50
2018-04-22T17:50:45.794Z,31.70
2018-04-22T17:53:22.759Z,32.20
2018-04-22T17:55:57.940Z,32.20
2018-04-22T17:58:34.564Z,32.00
2018-04-22T18:01:09.649Z,32.60
2018-04-22T18:03:45.566Z,33.00
2018-04-22T18:06:21.542Z,33.20
2018-04-22T18:08:56.705Z,33.30
2018-04-22T18:11:31.941Z,33.60
2018-04-22T18:14:07.144Z,33.60
2018-04-22T18:16:42.468Z,33.80
2018-04-22T18:19:17.906Z,33.60
2018-04-22T18:21:54.223Z,33.40
2018-04-22T18:24:30.502Z,33.20
2018-04-22T18:27:05.842Z,33.40
2018-04-22T18:29:41.192Z,33.30
2018-04-22T18:32:16.343Z,33.00
2018-04-22T18:34:53.520Z,32.60
2018-04-22T18:37:28.576Z,33.10
2018-04-22T18:40:05.227Z,33.00
2018-04-22T18:42:40.354Z,33.10
2018-04-22T18:45:16.343Z,33.00
2018-04-22T18:47:51.462Z,32.90
2018-04-22T18:50:27.465Z,33.10
2018-04-22T18:53:02.614Z,32.90
2018-04-22T18:55:37.903Z,32.70
2018-04-22T18:58:13.219Z,32.80
2018-04-22T19:00:49.329Z,33.10
2018-04-22T19:03:24.470Z,33.10
2018-04-22T19:05:59.607Z,33.20
2018-04-22T19:08:35.585Z,33.10
2018-04-22T19:11:11.051Z,33.10
2018-04-22T19:13:46.554Z,33.20
2018-04-22T19:16:21.742Z,33.60
2018-04-22T19:18:57.962Z,32.90
2018-04-22T19:21:33.140Z,32.80
2018-04-22T19:24:08.411Z,33.10
2018-04-22T19:26:43.739Z,33.10
2018-04-22T19:29:19.704Z,33.10
2018-04-22T19:31:54.918Z,33.00
2018-04-22T19:34:30.177Z,33.00
2018-04-22T19:37:05.498Z,32.80
2018-04-22T19:39:40.645Z,33.00
2018-04-22T19:42:16.090Z,33.00
2018-04-22T19:44:51.233Z,33.00
2018-04-22T19:47:26.613Z,32.30
2018-04-22T19:50:01.876Z,32.20
2018-04-22T19:52:37.031Z,32.70
2018-04-22T19:55:12.289Z,32.40
2018-04-22T19:57:47.563Z,32.30
2018-04-22T20:00:22.935Z,32.30
2018-04-22T20:02:57.991Z,33.00
2018-04-22T20:05:33.167Z,33.00
2018-04-22T20:08:08.294Z,32.60
2018-04-22T20:10:43.804Z,32.60
2018-04-22T20:13:19.181Z,32.90
2018-04-22T20:15:54.385Z,32.60
2018-04-22T20:18:30.271Z,32.70
2018-04-22T20:21:06.286Z,32.80
2018-04-22T20:23:41.575Z,32.80
2018-04-22T20:26:17.464Z,32.60
2018-04-22T20:28:52.569Z,32.60
2018-04-22T20:31:27.979Z,32.60
2018-04-22T20:34:03.622Z,32.60
2018-04-22T20:36:38.876Z,32.80
2018-04-22T20:39:14.421Z,32.80
2018-04-22T20:41:49.678Z,32.90
2018-04-22T20:44:24.826Z,32.80
2018-04-22T20:47:00.065Z,33.20
2018-04-22T20:49:35.401Z,33.10
2018-04-22T20:52:11.486Z,33.60
2018-04-22T20:54:46.793Z,33.50
2018-04-22T20:57:22.131Z,33.60
2018-04-22T20:59:57.471Z,33.70
2018-04-22T21:02:33.554Z,33.90
2018-04-22T21:05:08.722Z,33.90
2018-04-22T21:07:44.738Z,34.40
2018-04-22T21:10:20.747Z,34.20
2018-04-22T21:12:55.988Z,34.20
2018-04-22T21:15:31.304Z,34.20
2018-04-22T21:18:06.438Z,34.30
2018-04-22T21:20:42.483Z,34.80
2018-04-22T21:23:17.798Z,34.80
2018-04-22T21:25:53.040Z,34.80
2018-04-22T21:28:29.048Z,34.80
2018-04-22T21:31:04.469Z,34.80
2018-04-22T21:33:39.578Z,35.10
2018-04-22T21:36:14.922Z,35.10
2018-04-22T21:38:50.074Z,35.20
2018-04-22T21:41:26.183Z,35.60
2018-04-22T21:44:01.357Z,35.60
2018-04-22T21:46:36.640Z,35.60
2018-04-22T21:49:12.791Z,35.70
2018-04-22T21:51:47.994Z,36.00
2018-04-22T21:54:24.039Z,36.20
2018-04-22T21:56:59.104Z,36.20
2018-04-22T21:59:34.445Z,36.10
2018-04-22T22:02:09.738Z,36.30
2018-04-22T22:04:45.009Z,36.70
2018-04-22T22:07:20.373Z,36.70
2018-04-22T22:09:56.222Z,36.50
2018-04-22T22:12:31.478Z,36.50
2018-04-22T22:15:06.578Z,36.70
2018-04-22T22:17:41.900Z,36.90
2018-04-22T22:20:17.069Z,37.00
2018-04-22T22:22:52.326Z,37.40
2018-04-22T22:25:27.805Z,37.60
2018-04-22T22:28:02.887Z,38.00
2018-04-22T22:30:38.226Z,38.40
2018-04-22T22:33:14.209Z,38.50
2018-04-22T22:35:49.452Z,38.50
2018-04-22T22:38:24.663Z,38.60
2018-04-22T22:40:59.988Z,38.70
2018-04-22T22:43:35.198Z,39.10
2018-04-22T22:46:11.167Z,39.60
2018-04-22T22:48:47.227Z,39.80
2018-04-22T22:51:22.508Z,39.80
2018-04-22T22:53:57.841Z,39.90
2018-04-22T22:56:33.188Z,40.20
2018-04-22T22:59:08.331Z,40.60
2018-04-22T23:01:43.619Z,40.80
2018-04-22T23:04:18.911Z,41.10
2018-04-22T23:06:54.314Z,41.30
2018-04-22T23:09:30.845Z,41.90
2018-04-22T23:12:06.068Z,42.00
2018-04-22T23:14:42.057Z,42.70
2018-04-22T23:17:17.253Z,42.10
2018-04-22T23:19:52.387Z,42.60
2018-04-22T23:25:09.074Z,43.40
2018-04-22T23:27:44.200Z,43.50
2018-04-22T23:30:20.117Z,43.50
2018-04-22T23:32:55.988Z,43.60
2018-04-22T23:35:31.071Z,43.60
2018-04-22T23:38:06.429Z,44.00
2018-04-22T23:40:42.293Z,45.30
2018-04-22T23:43:17.411Z,44.50
2018-04-22T23:45:53.882Z,44.30
2018-04-22T23:48:28.959Z,44.50
2018-04-22T23:51:04.262Z,44.30
2018-04-22T23:53:39.642Z,44.40
2018-04-22T23:56:14.748Z,44.80
2018-04-22T23:58:50.187Z,44.80
